Time;durP1;ratioP1;P1;durP2;ratioP2;P2;SDS_P1;SDS_P2;PMS_P1;PMS_P2;Temp;Humidity;BMP_temperature;BMP_pressure;BME280_temperature;BME280_humidity;BME280_pressure;Samples;Min_cycle;Max_cycle;Signal;HPM_P1;HPM_P2
2022/12/14 00:02:52;;;;;;;;;;;;;;;19.20;26.12;94277.56;10427775;28;2015;-51
2022/12/14 00:07:59;;;;;;;;;;;;;;;19.18;25.97;94286.81;10425132;28;2014;-53
2022/12/14 00:13:00;;;;;;;;;;;;;;;19.14;25.98;94264.84;10413489;28;2123;-49
2022/12/14 00:18:00;;;;;;;;;;;;;;;19.10;25.99;94254.13;10423863;28;1983;-53
2022/12/14 00:23:00;;;;;;;;;;;;;;;19.06;25.79;94271.56;10441381;28;2085;-53
2022/12/14 00:28:01;;;;;;;;;;;;;;;19.03;25.80;94300.28;10421811;28;2131;-53
2022/12/14 00:33:02;;;;;;;;;;;;;;;19.01;25.94;94294.56;10443515;28;1974;-53
2022/12/14 00:38:02;;;;;;;;;;;;;;;18.98;25.77;94298.53;10439296;28;2201;-52
2022/12/14 00:43:07;;;;;;;;;;;;;;;18.95;25.67;94293.13;10446014;28;1949;-51
2022/12/14 00:48:07;;;;;;;;;;;;;;;18.92;25.65;94289.22;10445975;28;1931;-49
2022/12/14 00:53:08;;;;;;;;;;;;;;;18.93;25.57;94275.03;10459583;28;1902;-52
2022/12/14 00:58:09;;;;;;;;;;;;;;;18.90;25.54;94262.50;10426344;28;2004;-53
2022/12/14 01:03:10;;;;;;;;;;;;;;;18.89;25.50;94281.97;10441049;28;1973;-52
2022/12/14 01:08:13;;;;;;;;;;;;;;;18.90;25.40;94294.00;10433742;28;1973;-52
2022/12/14 01:13:14;;;;;;;;;;;;;;;18.91;25.44;94300.03;10455347;28;2017;-49
2022/12/14 01:18:14;;;;;;;;;;;;;;;18.92;25.39;94298.97;10431755;28;2066;-51
2022/12/14 01:23:16;;;;;;;;;;;;;;;18.92;25.26;94298.97;10433504;28;1969;-53
2022/12/14 01:28:17;;;;;;;;;;;;;;;18.92;25.46;94288.47;10436612;28;1971;-52
2022/12/14 01:33:17;;;;;;;;;;;;;;;18.92;25.26;94288.47;10431358;28;2038;-51
2022/12/14 01:38:17;;;;;;;;;;;;;;;18.90;25.39;94280.13;10442880;28;1848;-49
2022/12/14 01:43:17;;;;;;;;;;;;;;;18.92;25.26;94267.47;10440551;28;1997;-52
2022/12/14 01:48:18;;;;;;;;;;;;;;;18.92;25.11;94281.34;10442039;28;1887;-51
2022/12/14 01:53:19;;;;;;;;;;;;;;;18.94;25.02;94287.09;10434966;28;1782;-53
2022/12/14 01:58:23;;;;;;;;;;;;;;;18.92;25.05;94276.09;10443940;28;2046;-54
2022/12/14 02:03:36;;;;;;;;;;;;;;;18.93;24.95;94269.00;10447980;28;1972;-54
2022/12/14 02:08:36;;;;;;;;;;;;;;;18.94;25.01;94267.94;10440189;28;1971;-51
2022/12/14 02:13:40;;;;;;;;;;;;;;;18.92;25.03;94267.47;10422571;28;2021;-48
2022/12/14 02:18:40;;;;;;;;;;;;;;;18.93;24.92;94248.78;10425555;28;2109;-52
2022/12/14 02:23:56;;;;;;;;;;;;;;;18.94;24.94;94254.81;10432599;28;1935;-52
2022/12/14 02:29:02;;;;;;;;;;;;;;;18.94;24.95;94258.19;10439587;28;1974;-54
2022/12/14 02:34:05;;;;;;;;;;;;;;;18.92;24.89;94247.22;10432391;28;2129;-52
2022/12/14 02:39:12;;;;;;;;;;;;;;;18.92;24.81;94225.47;10445807;28;1983;-50
2022/12/14 02:44:18;;;;;;;;;;;;;;;18.93;24.88;94240.91;10428494;28;1970;-52
2022/12/14 02:49:18;;;;;;;;;;;;;;;18.92;24.88;94220.97;10411041;28;1914;-52
2022/12/14 02:54:37;;;;;;;;;;;;;;;18.95;24.72;94220.38;10443429;28;1974;-53
2022/12/14 02:59:37;;;;;;;;;;;;;;;18.93;24.83;94217.28;10432832;28;1975;-50
2022/12/14 03:04:46;;;;;;;;;;;;;;;18.93;24.74;94219.13;10450421;28;2000;-48
2022/12/14 03:09:47;;;;;;;;;;;;;;;18.95;24.74;94209.88;10419949;28;1994;-53
2022/12/14 03:14:49;;;;;;;;;;;;;;;18.91;25.00;94189.75;10441805;28;2058;-53
2022/12/14 03:19:57;;;;;;;;;;;;;;;18.93;24.79;94191.03;10449877;28;2013;-50
2022/12/14 03:24:59;;;;;;;;;;;;;;;18.91;24.67;94187.91;10431559;28;2054;-51
2022/12/14 03:30:02;;;;;;;;;;;;;;;18.93;24.61;94180.53;10462468;28;2076;-50
2022/12/14 03:35:04;;;;;;;;;;;;;;;18.90;24.82;94180.34;10445017;28;1965;-53
2022/12/14 03:40:07;;;;;;;;;;;;;;;18.87;24.74;94188.81;10451574;28;2039;-51
2022/12/14 03:45:20;;;;;;;;;;;;;;;18.89;24.70;94179.56;10435123;28;2086;-48
2022/12/14 03:50:27;;;;;;;;;;;;;;;18.87;24.66;94184.34;10443319;28;1975;-52
2022/12/14 03:55:30;;;;;;;;;;;;;;;18.86;24.57;94193.28;10445630;28;1981;-50
2022/12/14 04:00:30;;;;;;;;;;;;;;;18.86;24.53;94192.50;10425816;28;2046;-53
2022/12/14 04:05:39;;;;;;;;;;;;;;;18.86;24.60;94195.13;10437567;28;1867;-54
2022/12/14 04:21:41;;;;;;;;;;;;;;;18.81;24.64;94164.53;10427047;28;1987;-51
2022/12/14 04:26:43;;;;;;;;;;;;;;;18.82;24.59;94149.53;10450702;28;2234;-49
2022/12/14 04:31:44;;;;;;;;;;;;;;;18.81;24.56;94134.88;10432254;28;1974;-53
2022/12/14 04:36:45;;;;;;;;;;;;;;;18.79;24.67;94127.31;10426410;28;1943;-51
2022/12/14 04:41:47;;;;;;;;;;;;;;;18.78;24.58;94123.13;10439050;28;1979;-51
2022/12/14 04:46:47;;;;;;;;;;;;;;;18.79;24.47;94127.31;10432320;28;2018;-48
2022/12/14 04:51:52;;;;;;;;;;;;;;;18.78;24.59;94125.75;10450165;28;1954;-48
2022/12/14 04:57:00;;;;;;;;;;;;;;;18.78;24.45;94112.63;10427241;28;1918;-53
2022/12/14 05:02:13;;;;;;;;;;;;;;;18.86;24.37;94117.16;10451605;28;1990;-51
2022/12/14 05:07:19;;;;;;;;;;;;;;;18.95;24.25;94115.34;10449814;28;2121;-47
2022/12/14 05:12:25;;;;;;;;;;;;;;;19.02;24.22;94122.81;10449582;28;1979;-51
2022/12/14 05:17:26;;;;;;;;;;;;;;;19.11;24.18;94116.50;10425157;28;2382;-52
2022/12/14 05:22:26;;;;;;;;;;;;;;;19.11;24.13;94105.22;10438209;28;2472;-51
2022/12/14 05:27:26;;;;;;;;;;;;;;;19.18;24.07;94113.44;10431770;28;2002;-51
2022/12/14 05:32:29;;;;;;;;;;;;;;;19.21;24.08;94113.59;10436402;28;1911;-48
2022/12/14 05:37:29;;;;;;;;;;;;;;;19.20;24.12;94109.44;10448776;28;2067;-49
2022/12/14 05:42:30;;;;;;;;;;;;;;;19.22;24.09;94109.91;10441449;28;1973;-50
2022/12/14 05:47:30;;;;;;;;;;;;;;;19.24;24.00;94092.00;10440756;28;2084;-52
2022/12/14 05:52:31;;;;;;;;;;;;;;;19.26;24.06;94092.47;10447382;28;1947;-52
2022/12/14 05:57:31;;;;;;;;;;;;;;;19.26;23.97;94084.59;10451027;28;1941;-53
2022/12/14 06:02:31;;;;;;;;;;;;;;;19.28;24.07;94076.38;10446529;28;1959;-52
2022/12/14 06:07:32;;;;;;;;;;;;;;;19.25;24.05;94059.38;10439437;28;1967;-51
2022/12/14 06:12:32;;;;;;;;;;;;;;;19.28;23.90;94060.63;10445453;28;2033;-53
2022/12/14 06:17:32;;;;;;;;;;;;;;;19.32;24.00;94046.56;10437838;28;2081;-51
2022/12/14 06:22:32;;;;;;;;;;;;;;;19.28;24.03;94061.41;10440858;28;1951;-52
2022/12/14 06:27:33;;;;;;;;;;;;;;;19.33;24.02;94065.75;10442304;28;2210;-53
2022/12/14 06:32:33;;;;;;;;;;;;;;;19.32;23.95;94054.47;10431263;28;1969;-53
2022/12/14 06:37:33;;;;;;;;;;;;;;;19.33;24.03;94044.72;10435011;28;2006;-48
2022/12/14 06:42:45;;;;;;;;;;;;;;;19.34;24.17;94049.69;10445225;28;1906;-53
2022/12/14 06:47:45;;;;;;;;;;;;;;;19.35;23.72;94032.84;10441292;28;1914;-53
2022/12/14 06:52:49;;;;;;;;;;;;;;;19.37;24.14;94028.06;10438976;28;1908;-49
2022/12/14 06:57:50;;;;;;;;;;;;;;;19.37;23.71;94022.81;10441682;28;2006;-49
2022/12/14 07:02:51;;;;;;;;;;;;;;;19.39;24.18;94022.50;10440365;28;2111;-48
2022/12/14 07:07:54;;;;;;;;;;;;;;;19.39;24.03;94002.25;10453610;28;1977;-50
2022/12/14 07:12:55;;;;;;;;;;;;;;;19.41;24.14;94017.72;10452674;28;1901;-53
2022/12/14 07:17:55;;;;;;;;;;;;;;;19.43;23.98;94012.94;10439668;28;1967;-51
2022/12/14 07:22:55;;;;;;;;;;;;;;;19.43;23.93;94008.44;10449809;28;2005;-53
2022/12/14 07:27:55;;;;;;;;;;;;;;;19.46;23.99;94009.69;10441172;28;1953;-52
2022/12/14 07:32:56;;;;;;;;;;;;;;;19.49;24.10;94009.84;10435061;28;1971;-53
2022/12/14 07:37:56;;;;;;;;;;;;;;;19.48;24.12;94002.25;10447273;28;1911;-51
2022/12/14 07:42:57;;;;;;;;;;;;;;;19.51;24.03;93985.13;10435477;28;1967;-51
2022/12/14 07:47:57;;;;;;;;;;;;;;;19.48;23.93;93992.53;10443985;28;1923;-51
2022/12/14 07:52:57;;;;;;;;;;;;;;;19.49;24.18;93980.19;10426592;28;2014;-53
2022/12/14 07:57:57;;;;;;;;;;;;;;;19.50;24.09;93992.22;10434576;28;2042;-51
2022/12/14 08:02:58;;;;;;;;;;;;;;;19.44;24.05;93985.56;10437632;28;2331;-54
2022/12/14 08:07:58;;;;;;;;;;;;;;;19.41;23.91;93973.81;10435419;28;1962;-54
2022/12/14 08:12:58;;;;;;;;;;;;;;;19.40;23.87;93971.50;10447566;28;1839;-51
2022/12/14 08:17:58;;;;;;;;;;;;;;;19.37;23.99;93965.00;10437846;28;1938;-48
2022/12/14 08:22:59;;;;;;;;;;;;;;;19.35;24.05;93958.53;10418158;28;2086;-52
2022/12/14 08:27:59;;;;;;;;;;;;;;;19.27;24.14;93952.13;10438177;28;2091;-51
2022/12/14 08:32:59;;;;;;;;;;;;;;;19.23;24.27;93943.31;10460811;28;1955;-54
2022/12/14 08:38:00;;;;;;;;;;;;;;;19.16;24.27;93937.78;10438827;28;1895;-52
2022/12/14 08:43:00;;;;;;;;;;;;;;;19.10;24.37;93931.09;10449365;28;1972;-50
2022/12/14 08:48:00;;;;;;;;;;;;;;;19.05;24.40;93943.59;10447354;28;2017;-51
2022/12/14 08:53:01;;;;;;;;;;;;;;;19.02;24.29;93942.38;10461886;28;1946;-51
2022/12/14 08:58:01;;;;;;;;;;;;;;;18.94;24.44;93935.25;10446550;28;1948;-53
2022/12/14 09:03:02;;;;;;;;;;;;;;;18.88;24.41;93915.47;10450144;28;1931;-51
2022/12/14 09:08:02;;;;;;;;;;;;;;;18.86;24.68;93901.88;10440058;28;1985;-49
2022/12/14 09:13:03;;;;;;;;;;;;;;;18.87;24.47;93913.94;10451938;28;1990;-51
2022/12/14 09:18:04;;;;;;;;;;;;;;;18.93;24.28;93907.47;10446487;28;2042;-50
2022/12/14 09:23:04;;;;;;;;;;;;;;;18.98;24.14;93912.56;10462480;28;1972;-49
2022/12/14 09:28:04;;;;;;;;;;;;;;;19.03;24.43;93907.16;10454009;28;2097;-51
2022/12/14 09:33:05;;;;;;;;;;;;;;;19.11;24.15;93903.00;10444597;28;1965;-53
2022/12/14 09:38:05;;;;;;;;;;;;;;;19.14;24.08;93905.78;10444713;28;1958;-53
2022/12/14 09:43:05;;;;;;;;;;;;;;;19.17;23.95;93892.03;10458736;28;1974;-48
2022/12/14 09:48:15;;;;;;;;;;;;;;;19.21;24.16;93881.66;10455533;28;1951;-49
2022/12/14 09:53:16;;;;;;;;;;;;;;;19.21;24.17;93865.91;10474197;28;1808;-54
2022/12/14 09:58:18;;;;;;;;;;;;;;;19.20;24.28;93854.66;10462428;28;1988;-51
2022/12/14 10:03:37;;;;;;;;;;;;;;;19.23;24.30;93832.22;10449748;28;1971;-52
2022/12/14 10:08:42;;;;;;;;;;;;;;;19.26;24.27;93835.03;10419665;28;2006;-53
2022/12/14 10:13:42;;;;;;;;;;;;;;;19.28;24.16;93824.19;10455451;28;2007;-52
2022/12/14 10:18:48;;;;;;;;;;;;;;;19.30;24.24;93816.78;10466087;28;2039;-50
2022/12/14 10:23:59;;;;;;;;;;;;;;;19.27;24.29;93807.66;10438838;28;1986;-53
2022/12/14 10:29:18;;;;;;;;;;;;;;;19.28;24.20;93790.84;10448102;28;1915;-52
2022/12/14 10:34:19;;;;;;;;;;;;;;;19.26;24.25;93779.09;10433722;28;1968;-53
2022/12/14 10:39:20;;;;;;;;;;;;;;;19.28;24.13;93788.19;10436223;28;2004;-48
2022/12/14 10:44:40;;;;;;;;;;;;;;;19.26;24.36;93793.00;10439204;28;1951;-54
2022/12/14 10:49:49;;;;;;;;;;;;;;;19.27;24.26;93801.63;10445779;28;1927;-52
2022/12/14 10:54:51;;;;;;;;;;;;;;;19.26;24.15;93793.00;10435057;28;1963;-52
2022/12/14 10:59:52;;;;;;;;;;;;;;;19.28;24.16;93775.06;10448199;28;1914;-51
2022/12/14 11:04:53;;;;;;;;;;;;;;;19.26;24.21;93786.97;10449226;28;1965;-52
2022/12/14 11:09:53;;;;;;;;;;;;;;;19.28;24.20;93772.44;10426086;28;2050;-51
2022/12/14 11:14:57;;;;;;;;;;;;;;;19.27;24.27;93763.00;10446389;28;2052;-50
2022/12/14 11:20:12;;;;;;;;;;;;;;;19.28;24.24;93767.19;10443283;28;1965;-52
2022/12/14 11:25:29;;;;;;;;;;;;;;;19.34;24.44;93770.44;10435765;28;2038;-49
2022/12/14 11:30:29;;;;;;;;;;;;;;;19.35;24.35;93737.84;10441163;28;1958;-53
2022/12/14 11:35:30;;;;;;;;;;;;;;;19.38;24.54;93753.75;10459549;28;1950;-57
2022/12/14 11:40:30;;;;;;;;;;;;;;;19.37;24.47;93759.31;10439423;28;2017;-49
2022/12/14 11:45:31;;;;;;;;;;;;;;;19.35;24.35;93743.84;10446608;28;2096;-51
2022/12/14 11:50:31;;;;;;;;;;;;;;;19.36;24.49;93726.25;10424116;28;1955;-53
2022/12/14 11:55:32;;;;;;;;;;;;;;;19.33;24.55;93724.22;10454778;28;1796;-49
2022/12/14 12:00:33;;;;;;;;;;;;;;;19.30;24.44;93738.75;10441791;28;2093;-51
2022/12/14 12:05:37;;;;;;;;;;;;;;;19.26;24.45;93743.09;10465113;28;1609;-53
2022/12/14 12:10:38;;;;;;;;;;;;;;;19.25;24.42;93756.50;10469668;28;1315;-53
2022/12/14 12:15:39;;;;;;;;;;;;;;;19.18;24.37;93743.88;10447133;28;1717;-50
2022/12/14 12:21:00;;;;;;;;;;;;;;;19.13;24.50;93723.03;10434926;28;2011;-50
2022/12/14 12:26:02;;;;;;;;;;;;;;;19.08;24.47;93731.06;10440108;28;1966;-51
2022/12/14 12:31:02;;;;;;;;;;;;;;;18.98;24.67;93715.63;10436234;28;1963;-48
2022/12/14 12:36:03;;;;;;;;;;;;;;;18.93;24.71;93715.03;10437367;28;2046;-52
2022/12/14 12:41:19;;;;;;;;;;;;;;;18.88;24.70;93713.34;10450293;28;2020;-51
2022/12/14 12:46:21;;;;;;;;;;;;;;;18.84;24.67;93715.03;10433512;28;1963;-52
2022/12/14 12:51:26;;;;;;;;;;;;;;;18.84;24.75;93704.53;10438481;28;2043;-52
2022/12/14 12:56:36;;;;;;;;;;;;;;;18.82;24.73;93704.06;10430577;28;2003;-52
2022/12/14 13:01:37;;;;;;;;;;;;;;;18.79;24.87;93712.59;10436634;28;2023;-54
2022/12/14 13:06:40;;;;;;;;;;;;;;;18.75;24.93;93716.91;10451435;28;1911;-51
2022/12/14 13:11:41;;;;;;;;;;;;;;;18.74;24.72;93717.97;10449691;28;2033;-50
2022/12/14 13:16:42;;;;;;;;;;;;;;;18.69;24.77;93734.66;10429269;28;1965;-54
2022/12/14 13:21:45;;;;;;;;;;;;;;;18.70;24.79;93745.94;10446871;28;1902;-50
2022/12/14 13:26:49;;;;;;;;;;;;;;;18.69;24.82;93758.28;10472773;28;2017;-52
2022/12/14 13:32:10;;;;;;;;;;;;;;;18.66;24.77;93761.53;10441642;28;1651;-54
2022/12/14 13:37:16;;;;;;;;;;;;;;;18.63;24.81;93767.38;10457075;28;1583;-54
2022/12/14 13:42:26;;;;;;;;;;;;;;;18.63;24.81;93777.09;10465230;28;1912;-50
2022/12/14 13:47:32;;;;;;;;;;;;;;;18.60;24.84;93770.63;10453097;28;1883;-52
2022/12/14 13:52:40;;;;;;;;;;;;;;;18.58;24.88;93764.91;10465578;28;1862;-51
2022/12/14 13:57:41;;;;;;;;;;;;;;;18.55;24.85;93759.50;10457376;28;1237;-54
2022/12/14 14:02:41;;;;;;;;;;;;;;;18.57;24.94;93765.22;10453254;28;1906;-54
2022/12/14 14:07:52;;;;;;;;;;;;;;;18.55;24.92;93764.75;10456853;28;1920;-50
2022/12/14 14:12:54;;;;;;;;;;;;;;;18.56;24.80;93761.06;10436876;28;1919;-53
2022/12/14 14:17:54;;;;;;;;;;;;;;;18.54;24.72;93758.75;10427899;28;1994;-52
2022/12/14 14:23:13;;;;;;;;;;;;;;;18.50;24.87;93780.66;10450745;28;1963;-51
2022/12/14 14:28:14;;;;;;;;;;;;;;;18.53;24.74;93736.19;10438843;28;1913;-54
2022/12/14 14:33:28;;;;;;;;;;;;;;;18.52;24.82;93741.75;10441144;28;1967;-52
2022/12/14 14:38:32;;;;;;;;;;;;;;;18.51;24.83;93751.47;10446408;28;1916;-49
2022/12/14 14:43:36;;;;;;;;;;;;;;;18.53;24.74;93774.78;10467528;28;1906;-52
2022/12/14 14:48:39;;;;;;;;;;;;;;;18.51;24.67;93756.72;10450746;28;1927;-54
2022/12/14 14:53:40;;;;;;;;;;;;;;;18.49;24.91;93750.22;10435291;28;2050;-54
2022/12/14 14:58:40;;;;;;;;;;;;;;;18.51;24.68;93771.69;10419415;28;2067;-53
2022/12/14 15:03:45;;;;;;;;;;;;;;;18.48;24.77;93786.22;10433342;28;2038;-52
2022/12/14 15:08:51;;;;;;;;;;;;;;;18.47;24.71;93781.25;10466156;28;1962;-54
2022/12/14 15:13:59;;;;;;;;;;;;;;;18.49;24.73;93765.97;10450518;28;1909;-53
2022/12/14 15:19:18;;;;;;;;;;;;;;;18.50;24.93;93767.53;10439277;28;2133;-52
2022/12/14 15:24:18;;;;;;;;;;;;;;;18.49;24.71;93766.75;10438933;28;1989;-50
2022/12/14 15:29:21;;;;;;;;;;;;;;;18.52;24.68;93781.91;10435986;28;2047;-53
2022/12/14 15:34:22;;;;;;;;;;;;;;;18.49;24.69;93760.72;10430310;28;2053;-53
2022/12/14 15:39:32;;;;;;;;;;;;;;;18.49;24.74;93781.72;10432201;28;2101;-54
2022/12/14 15:44:36;;;;;;;;;;;;;;;18.50;24.81;93781.44;10425002;28;1983;-53
2022/12/14 15:49:36;;;;;;;;;;;;;;;18.52;24.88;93784.53;10427226;28;1978;-48
2022/12/14 15:54:36;;;;;;;;;;;;;;;18.55;24.86;93801.47;10428298;28;2029;-53
2022/12/14 15:59:36;;;;;;;;;;;;;;;18.59;24.84;93803.19;10453379;28;1937;-52
2022/12/14 16:04:37;;;;;;;;;;;;;;;18.64;24.86;93804.91;10429457;28;2030;-53
2022/12/14 16:09:39;;;;;;;;;;;;;;;18.72;24.78;93805.97;10443650;28;1982;-54
2022/12/14 16:14:45;;;;;;;;;;;;;;;18.76;24.95;93814.78;10433264;28;2062;-52
2022/12/14 16:20:12;;;;;;;;;;;;;;;18.81;24.79;93831.16;10430470;28;2027;-53
2022/12/14 16:25:15;;;;;;;;;;;;;;;18.86;24.75;93832.84;10407694;28;1941;-51
2022/12/14 16:30:19;;;;;;;;;;;;;;;18.84;24.81;93850.75;10444521;28;1978;-53
2022/12/14 16:35:20;;;;;;;;;;;;;;;18.84;24.93;93856.78;10432338;28;1973;-50
2022/12/14 16:40:33;;;;;;;;;;;;;;;18.88;24.81;93865.59;10448733;28;1969;-53
2022/12/14 16:45:39;;;;;;;;;;;;;;;18.89;24.87;93869.78;10429413;28;2042;-51
2022/12/14 16:50:40;;;;;;;;;;;;;;;18.94;24.76;93871.50;10419462;28;1969;-52
2022/12/14 16:55:59;;;;;;;;;;;;;;;18.93;24.81;93870.69;10450958;28;1948;-51
2022/12/14 17:01:03;;;;;;;;;;;;;;;18.94;24.87;93882.75;10433271;28;2146;-53
2022/12/14 17:06:04;;;;;;;;;;;;;;;18.97;24.94;93881.34;10434158;28;1976;-53
2022/12/14 17:11:05;;;;;;;;;;;;;;;18.97;24.94;93892.63;10439202;28;1959;-54
2022/12/14 17:16:06;;;;;;;;;;;;;;;18.98;25.09;93904.66;10450891;28;1961;-51
2022/12/14 17:21:06;;;;;;;;;;;;;;;18.99;24.86;93895.72;10444780;28;1971;-51
2022/12/14 17:26:09;;;;;;;;;;;;;;;19.02;24.93;93913.47;10429752;28;1976;-51
2022/12/14 17:31:09;;;;;;;;;;;;;;;19.04;25.04;93923.69;10448791;28;1965;-51
2022/12/14 17:36:09;;;;;;;;;;;;;;;19.03;24.96;93932.63;10451505;28;1904;-53
2022/12/14 17:41:13;;;;;;;;;;;;;;;19.02;24.97;93933.75;10448001;28;1953;-51
2022/12/14 17:46:14;;;;;;;;;;;;;;;19.07;24.90;93929.09;10418333;28;1978;-54
2022/12/14 17:51:25;;;;;;;;;;;;;;;19.08;25.03;93943.75;10434126;28;1935;-53
2022/12/14 17:56:27;;;;;;;;;;;;;;;19.12;25.30;93957.84;10475699;28;1945;-53
2022/12/14 18:01:27;;;;;;;;;;;;;;;19.14;25.35;93963.56;10452771;28;1918;-55
2022/12/14 18:06:27;;;;;;;;;;;;;;;19.19;25.28;93971.28;10465748;28;2124;-53
2022/12/14 18:11:28;;;;;;;;;;;;;;;19.22;25.40;93973.31;10451772;28;1542;-54
2022/12/14 18:16:28;;;;;;;;;;;;;;;19.21;25.63;93977.00;10457302;28;1868;-53
2022/12/14 18:21:29;;;;;;;;;;;;;;;19.25;25.61;93977.94;10474414;28;1967;-55
2022/12/14 18:26:29;;;;;;;;;;;;;;;19.25;25.63;93977.94;10463529;28;1800;-52
2022/12/14 18:31:31;;;;;;;;;;;;;;;19.28;25.91;93994.94;10464590;28;1491;-55
2022/12/14 18:36:31;;;;;;;;;;;;;;;19.30;25.81;94001.44;10451298;28;1864;-53
2022/12/14 18:41:32;;;;;;;;;;;;;;;19.30;25.66;94022.47;10460241;28;1906;-52
2022/12/14 18:46:32;;;;;;;;;;;;;;;19.29;25.96;94026.16;10455344;28;1844;-52
2022/12/14 18:51:32;;;;;;;;;;;;;;;19.33;25.97;94035.00;10458028;28;1846;-53
2022/12/14 18:56:32;;;;;;;;;;;;;;;19.30;25.06;94043.47;10455962;28;1763;-52
2022/12/14 19:01:33;;;;;;;;;;;;;;;19.38;26.14;94045.38;10452453;28;1913;-55
2022/12/14 19:06:34;;;;;;;;;;;;;;;19.38;26.29;94061.16;10463627;28;1633;-54
2022/12/14 19:11:37;;;;;;;;;;;;;;;19.38;26.24;94058.53;10442806;28;2078;-52
2022/12/14 19:16:38;;;;;;;;;;;;;;;19.39;26.28;94051.41;10450883;28;1808;-54
2022/12/14 19:21:38;;;;;;;;;;;;;;;19.38;26.29;94055.13;10444723;28;1905;-52
2022/12/14 19:26:38;;;;;;;;;;;;;;;19.41;26.31;94063.16;10445015;28;1783;-54
2022/12/14 19:31:39;;;;;;;;;;;;;;;19.39;26.35;94067.19;10442475;28;1858;-53
2022/12/14 19:36:39;;;;;;;;;;;;;;;19.39;26.46;94059.31;10451412;28;1163;-55
2022/12/14 19:41:39;;;;;;;;;;;;;;;19.43;26.76;94053.09;10451247;28;1894;-54
2022/12/14 19:46:42;;;;;;;;;;;;;;;19.44;26.87;94061.78;10449511;28;1369;-52
2022/12/14 19:51:42;;;;;;;;;;;;;;;19.47;26.67;94069.81;10440943;28;1950;-53
2022/12/14 19:56:42;;;;;;;;;;;;;;;19.41;25.90;94070.28;10443944;28;2044;-51
2022/12/14 20:01:43;;;;;;;;;;;;;;;19.25;24.79;94067.25;10419669;28;2131;-51
2022/12/14 20:06:44;;;;;;;;;;;;;;;19.33;26.50;94073.63;10425019;28;2180;-52
2022/12/14 20:11:44;;;;;;;;;;;;;;;19.38;25.60;94082.16;10429119;28;1947;-51
2022/12/14 20:16:45;;;;;;;;;;;;;;;19.29;25.77;94089.22;10443058;28;2133;-54
2022/12/14 20:21:46;;;;;;;;;;;;;;;19.25;26.04;94098.00;10443545;28;1920;-53
2022/12/14 20:26:46;;;;;;;;;;;;;;;19.20;25.38;94106.03;10436946;28;1978;-48
2022/12/14 20:31:46;;;;;;;;;;;;;;;19.18;26.43;94098.47;10441481;28;1911;-52
2022/12/14 20:36:52;;;;;;;;;;;;;;;19.16;26.72;94100.63;10458309;28;2104;-52
2022/12/14 20:41:52;;;;;;;;;;;;;;;19.10;26.81;94107.06;10447366;28;1991;-51
2022/12/14 20:46:52;;;;;;;;;;;;;;;19.07;26.67;94102.44;10453546;28;2006;-52
2022/12/14 20:51:53;;;;;;;;;;;;;;;19.01;26.64;94115.97;10449020;28;1939;-52
2022/12/14 20:56:53;;;;;;;;;;;;;;;18.95;26.73;94123.22;10444685;28;1912;-52
2022/12/14 21:01:54;;;;;;;;;;;;;;;18.91;26.71;94137.25;10443553;28;1985;-46
2022/12/14 21:06:54;;;;;;;;;;;;;;;18.86;26.76;94124.25;10458348;28;2197;-51
2022/12/14 21:17:14;;;;;;;;;;;;;;;18.72;26.87;94153.19;10444269;28;2131;-52
2022/12/14 21:22:15;;;;;;;;;;;;;;;18.68;26.84;94147.78;10439306;28;1950;-51
2022/12/14 21:27:19;;;;;;;;;;;;;;;18.61;27.01;94147.41;10478433;28;2155;-53
2022/12/14 21:32:20;;;;;;;;;;;;;;;18.61;26.86;94162.38;10456258;28;1915;-52
2022/12/14 21:37:20;;;;;;;;;;;;;;;18.52;27.13;94145.81;10444973;28;2157;-53
2022/12/14 21:42:21;;;;;;;;;;;;;;;18.46;27.15;94141.78;10450258;28;1966;-49
2022/12/14 21:47:23;;;;;;;;;;;;;;;18.42;26.96;94143.41;10446251;28;1974;-49
2022/12/14 21:52:23;;;;;;;;;;;;;;;18.41;27.10;94141.84;10442463;28;2154;-53
2022/12/14 22:02:43;;;;;;;;;;;;;;;18.30;27.06;94162.28;10449912;28;2134;-51
2022/12/14 22:07:43;;;;;;;;;;;;;;;18.28;26.93;94174.16;10453043;28;2002;-51
2022/12/14 22:12:44;;;;;;;;;;;;;;;18.26;27.04;94192.03;10437005;28;2144;-52
2022/12/14 22:17:44;;;;;;;;;;;;;;;18.19;26.95;94186.41;10441643;28;2046;-52
2022/12/14 22:22:44;;;;;;;;;;;;;;;18.16;27.06;94173.88;10440263;28;2018;-49
2022/12/14 22:27:44;;;;;;;;;;;;;;;18.13;27.11;94179.72;10435348;28;2314;-50
2022/12/14 22:32:45;;;;;;;;;;;;;;;18.06;27.15;94187.22;10443941;28;1969;-54
2022/12/14 22:37:45;;;;;;;;;;;;;;;18.03;27.12;94198.31;10430104;28;2038;-50
2022/12/14 22:42:45;;;;;;;;;;;;;;;18.03;27.09;94193.06;10445282;28;1914;-53
2022/12/14 22:47:49;;;;;;;;;;;;;;;18.01;27.05;94189.97;10447642;28;2021;-50
2022/12/14 22:52:51;;;;;;;;;;;;;;;17.94;27.19;94197.44;10442171;28;1966;-51
2022/12/14 22:57:51;;;;;;;;;;;;;;;17.94;27.15;94202.69;10445004;28;1970;-54
2022/12/14 23:02:52;;;;;;;;;;;;;;;17.87;27.25;94193.38;10444697;28;1910;-52
2022/12/14 23:07:52;;;;;;;;;;;;;;;17.81;27.37;94189.31;10433468;28;2098;-47
